Time;durP1;ratioP1;P1;durP2;ratioP2;P2;SDS_P1;SDS_P2;PMS_P1;PMS_P2;Temp;Humidity;BMP_temperature;BMP_pressure;BME280_temperature;BME280_humidity;BME280_pressure;Samples;Min_cycle;Max_cycle;Signal;HPM_P1;HPM_P2
2023/04/30 00:00:46;;;;;;;;;;;;;;;11.14;63.56;98294.97;5049338;28;19920;-70
2023/04/30 00:03:35;;;;;;;;;;;;;;;11.13;64.08;98287.94;5045033;28;19921;-69
2023/04/30 00:06:23;;;;;;;;;;;;;;;11.15;64.10;98291.13;5049879;28;19920;-71
2023/04/30 00:09:13;;;;;;;;;;;;;;;11.21;63.76;98300.00;5055591;28;20145;-68
2023/04/30 00:12:02;;;;;;;;;;;;;;;11.21;64.29;98297.28;5058982;28;19974;-68
2023/04/30 00:14:50;;;;;;;;;;;;;;;11.19;64.48;98294.06;5058094;28;19928;-70
2023/04/30 00:17:40;;;;;;;;;;;;;;;11.16;64.84;98291.94;5058762;28;20405;-71
2023/04/30 00:20:28;;;;;;;;;;;;;;;11.18;64.43;98295.94;5056012;28;19925;-69
2023/04/30 00:23:16;;;;;;;;;;;;;;;11.15;64.49;98302.03;5054360;28;19939;-68
2023/04/30 00:26:06;;;;;;;;;;;;;;;11.13;64.68;98308.84;5058731;28;20519;-71
2023/04/30 00:28:56;;;;;;;;;;;;;;;11.19;64.71;98296.78;5050188;28;20022;-68
2023/04/30 00:31:44;;;;;;;;;;;;;;;11.24;64.62;98296.66;5055103;28;19924;-68
2023/04/30 00:34:34;;;;;;;;;;;;;;;11.20;64.67;98301.91;5056376;28;20561;-69
2023/04/30 00:37:23;;;;;;;;;;;;;;;11.19;64.91;98307.66;5052123;28;19929;-69
2023/04/30 00:40:11;;;;;;;;;;;;;;;11.18;65.02;98308.75;5049359;28;19971;-69
2023/04/30 00:43:00;;;;;;;;;;;;;;;11.17;65.20;98304.44;5050318;28;19924;-67
2023/04/30 00:45:50;;;;;;;;;;;;;;;11.14;65.23;98308.56;5034801;28;20727;-68
2023/04/30 00:48:38;;;;;;;;;;;;;;;11.06;65.76;98308.47;5053324;28;20303;-70
2023/04/30 00:51:28;;;;;;;;;;;;;;;10.95;66.09;98314.13;5053902;28;20055;-68
2023/04/30 00:54:16;;;;;;;;;;;;;;;10.93;66.41;98313.63;5031588;28;19920;-69
2023/04/30 00:57:04;;;;;;;;;;;;;;;10.96;66.24;98315.72;5045322;28;19926;-70
2023/04/30 00:59:52;;;;;;;;;;;;;;;10.91;66.00;98315.84;5056279;28;19920;-71
2023/04/30 01:02:41;;;;;;;;;;;;;;;10.81;66.65;98317.94;5045495;28;19924;-71
2023/04/30 01:05:29;;;;;;;;;;;;;;;10.82;66.78;98320.38;5047722;28;20010;-70
2023/04/30 01:08:19;;;;;;;;;;;;;;;10.87;66.60;98323.00;5059371;28;19924;-69
2023/04/30 01:11:10;;;;;;;;;;;;;;;10.91;66.42;98321.28;5042207;28;20017;-70
2023/04/30 01:13:59;;;;;;;;;;;;;;;10.92;66.25;98330.22;5028561;28;19971;-69
2023/04/30 01:16:49;;;;;;;;;;;;;;;10.92;66.11;98324.78;5044993;28;20527;-70
2023/04/30 01:19:38;;;;;;;;;;;;;;;10.91;66.38;98326.69;5035929;28;20048;-70
2023/04/30 01:22:32;;;;;;;;;;;;;;;10.88;66.51;98323.81;5050219;28;19925;-70
2023/04/30 01:25:30;;;;;;;;;;;;;;;10.84;66.84;98322.78;5043625;28;19932;-69
2023/04/30 01:28:20;;;;;;;;;;;;;;;10.77;67.01;98328.66;5046339;28;20458;-69
2023/04/30 01:31:11;;;;;;;;;;;;;;;10.72;67.24;98326.03;5077034;28;19958;-69
2023/04/30 01:33:59;;;;;;;;;;;;;;;10.71;67.42;98324.41;5078672;28;19920;-68
2023/04/30 01:36:54;;;;;;;;;;;;;;;10.70;67.49;98320.06;5072089;28;19924;-70
2023/04/30 01:39:50;;;;;;;;;;;;;;;10.68;67.44;98328.53;5075297;28;19920;-69
2023/04/30 01:42:41;;;;;;;;;;;;;;;10.63;67.61;98317.75;5062093;28;19931;-67
2023/04/30 01:45:44;;;;;;;;;;;;;;;10.63;67.59;98323.19;5077811;28;19936;-69
2023/04/30 01:48:33;;;;;;;;;;;;;;;10.67;67.64;98329.66;5071223;28;19928;-71
2023/04/30 01:51:26;;;;;;;;;;;;;;;10.66;67.67;98324.53;5042075;28;20285;-68
2023/04/30 01:54:17;;;;;;;;;;;;;;;10.69;67.63;98326.63;5043468;28;19921;-68
2023/04/30 01:57:06;;;;;;;;;;;;;;;10.67;67.81;98328.84;5043908;28;19928;-70
2023/04/30 01:59:55;;;;;;;;;;;;;;;10.68;67.79;98333.16;5043805;28;20555;-70
2023/04/30 02:02:44;;;;;;;;;;;;;;;10.64;68.00;98335.66;5040103;28;19921;-68
2023/04/30 02:05:33;;;;;;;;;;;;;;;10.60;67.80;98339.28;5059306;28;19921;-68
2023/04/30 02:08:21;;;;;;;;;;;;;;;10.61;67.96;98341.72;5054810;28;19997;-68
2023/04/30 02:11:09;;;;;;;;;;;;;;;10.62;67.94;98343.31;5056002;28;20027;-68
2023/04/30 02:13:57;;;;;;;;;;;;;;;10.65;68.05;98350.88;5059242;28;19932;-71
2023/04/30 02:16:46;;;;;;;;;;;;;;;10.71;67.74;98351.59;5043206;28;20002;-68
2023/04/30 02:19:36;;;;;;;;;;;;;;;10.70;67.81;98350.75;5055764;28;19931;-68
2023/04/30 02:22:24;;;;;;;;;;;;;;;10.63;68.09;98355.00;5058623;28;19964;-68
2023/04/30 02:25:12;;;;;;;;;;;;;;;10.66;67.98;98348.97;5045031;28;19932;-69
2023/04/30 02:28:03;;;;;;;;;;;;;;;10.66;67.81;98359.84;5069894;28;19932;-68
2023/04/30 02:30:52;;;;;;;;;;;;;;;10.65;68.32;98359.03;5045399;28;19964;-70
2023/04/30 02:33:40;;;;;;;;;;;;;;;10.59;67.78;98356.69;5033001;28;19924;-69
2023/04/30 02:36:32;;;;;;;;;;;;;;;10.56;68.07;98358.13;5050270;28;19929;-69
2023/04/30 02:39:20;;;;;;;;;;;;;;;10.48;68.69;98358.78;5051335;28;19928;-70
2023/04/30 02:42:08;;;;;;;;;;;;;;;10.52;68.54;98359.81;5054452;28;20045;-68
2023/04/30 02:44:56;;;;;;;;;;;;;;;10.57;68.47;98353.50;5039843;28;20193;-68
2023/04/30 02:47:44;;;;;;;;;;;;;;;10.63;68.11;98361.22;5026024;28;20474;-70
2023/04/30 02:50:33;;;;;;;;;;;;;;;10.60;68.29;98366.44;5074880;28;20455;-70
2023/04/30 02:53:22;;;;;;;;;;;;;;;10.62;67.97;98359.63;5060847;28;20337;-69
2023/04/30 02:56:10;;;;;;;;;;;;;;;10.51;68.76;98357.41;5077027;28;20483;-68
2023/04/30 02:58:58;;;;;;;;;;;;;;;10.53;68.69;98360.63;5059937;28;19985;-68
2023/04/30 03:01:46;;;;;;;;;;;;;;;10.53;68.60;98360.63;5063078;28;19985;-70
2023/04/30 03:04:37;;;;;;;;;;;;;;;10.47;68.56;98362.63;5064385;28;20411;-71
2023/04/30 03:07:25;;;;;;;;;;;;;;;10.45;68.81;98357.50;5073224;28;20399;-68
2023/04/30 03:10:15;;;;;;;;;;;;;;;10.43;68.76;98361.59;5062660;28;19920;-68
2023/04/30 03:13:03;;;;;;;;;;;;;;;10.38;69.15;98361.69;5061483;28;20088;-69
2023/04/30 03:15:56;;;;;;;;;;;;;;;10.37;69.06;98365.50;5071697;28;20019;-69
2023/04/30 03:18:44;;;;;;;;;;;;;;;10.35;69.03;98362.31;5074714;28;19927;-68
2023/04/30 03:21:33;;;;;;;;;;;;;;;10.20;69.20;98352.47;5063106;28;20053;-71
2023/04/30 03:24:21;;;;;;;;;;;;;;;10.36;69.14;98364.72;5076243;28;19962;-69
2023/04/30 03:27:10;;;;;;;;;;;;;;;10.27;69.69;98362.97;5061552;28;20323;-69
2023/04/30 03:29:58;;;;;;;;;;;;;;;10.28;69.85;98359.16;5078551;28;19927;-70
2023/04/30 03:32:46;;;;;;;;;;;;;;;10.31;69.65;98353.94;5062089;28;20653;-68
2023/04/30 03:35:35;;;;;;;;;;;;;;;10.31;69.66;98358.56;5060816;28;19954;-69
2023/04/30 03:38:23;;;;;;;;;;;;;;;10.32;69.37;98352.03;5072807;28;19985;-69
2023/04/30 03:41:11;;;;;;;;;;;;;;;10.29;69.62;98352.63;5061875;28;20000;-69
2023/04/30 03:44:00;;;;;;;;;;;;;;;10.25;69.83;98354.34;5078288;28;20003;-68
2023/04/30 03:46:49;;;;;;;;;;;;;;;10.26;69.83;98356.75;5074164;28;20055;-69
2023/04/30 03:49:37;;;;;;;;;;;;;;;10.26;69.67;98355.94;5054636;28;20056;-68
2023/04/30 03:52:26;;;;;;;;;;;;;;;10.24;69.80;98358.97;5067671;28;20281;-68
2023/04/30 03:55:15;;;;;;;;;;;;;;;10.24;70.13;98358.97;5059673;28;19955;-69
2023/04/30 03:58:03;;;;;;;;;;;;;;;10.27;69.94;98352.91;5060500;28;19943;-68
2023/04/30 04:00:52;;;;;;;;;;;;;;;10.27;69.64;98350.19;5042127;28;19924;-68
2023/04/30 04:03:42;;;;;;;;;;;;;;;10.31;69.56;98353.13;5045979;28;19992;-70
2023/04/30 04:06:30;;;;;;;;;;;;;;;10.28;69.57;98354.56;5062444;28;19963;-69
2023/04/30 04:09:18;;;;;;;;;;;;;;;10.31;69.63;98353.13;5059784;28;19986;-68
2023/04/30 04:12:07;;;;;;;;;;;;;;;10.26;69.62;98347.78;5059468;28;20560;-71
2023/04/30 04:14:56;;;;;;;;;;;;;;;10.30;69.68;98357.75;5060008;28;20054;-68
2023/04/30 04:17:46;;;;;;;;;;;;;;;10.27;69.55;98366.50;5060803;28;20012;-69
2023/04/30 04:20:34;;;;;;;;;;;;;;;10.27;69.54;98363.78;5072612;28;20494;-68
2023/04/30 04:23:23;;;;;;;;;;;;;;;10.36;69.09;98367.44;5054340;28;19931;-69
2023/04/30 04:26:11;;;;;;;;;;;;;;;10.36;68.98;98364.72;5070735;28;19947;-69
2023/04/30 04:28:59;;;;;;;;;;;;;;;10.38;68.94;98372.56;5059406;28;19958;-69
2023/04/30 04:31:49;;;;;;;;;;;;;;;10.41;68.75;98374.69;5068756;28;19931;-69
2023/04/30 04:34:40;;;;;;;;;;;;;;;10.43;68.71;98375.19;5057729;28;20125;-69
2023/04/30 04:37:28;;;;;;;;;;;;;;;10.43;68.66;98375.19;5058232;28;19943;-69
2023/04/30 04:40:17;;;;;;;;;;;;;;;10.39;68.62;98366.84;5055387;28;20422;-70
2023/04/30 04:43:05;;;;;;;;;;;;;;;10.44;68.96;98374.91;5056582;28;20026;-68
2023/04/30 04:45:56;;;;;;;;;;;;;;;10.48;68.61;98386.75;5060395;28;19932;-69
2023/04/30 04:48:44;;;;;;;;;;;;;;;10.56;68.22;98384.47;5069184;28;20289;-68
2023/04/30 04:51:34;;;;;;;;;;;;;;;10.53;68.15;98379.63;5058921;28;20041;-69
2023/04/30 04:54:23;;;;;;;;;;;;;;;10.57;68.72;98378.75;5072905;28;19954;-68
2023/04/30 04:57:11;;;;;;;;;;;;;;;10.61;68.28;98373.53;5057310;28;20564;-69
2023/04/30 04:59:59;;;;;;;;;;;;;;;10.63;67.67;98382.97;5057415;28;19921;-68
2023/04/30 05:02:47;;;;;;;;;;;;;;;10.52;67.70;98364.44;5059446;28;19921;-70
2023/04/30 05:05:36;;;;;;;;;;;;;;;10.69;67.74;98384.47;5060111;28;20022;-69
2023/04/30 05:08:26;;;;;;;;;;;;;;;10.77;67.43;98383.00;5045520;28;20395;-70
2023/04/30 05:11:14;;;;;;;;;;;;;;;10.74;67.43;98391.75;5046086;28;20035;-69
2023/04/30 05:14:03;;;;;;;;;;;;;;;10.85;67.13;98387.72;5045150;28;19924;-70
2023/04/30 05:16:51;;;;;;;;;;;;;;;10.82;67.22;98388.34;5057253;28;19924;-69
2023/04/30 05:19:39;;;;;;;;;;;;;;;10.85;67.30;98390.44;5059540;28;19963;-71
2023/04/30 05:22:27;;;;;;;;;;;;;;;10.90;66.94;98386.81;5057507;28;19932;-69
2023/04/30 05:25:16;;;;;;;;;;;;;;;10.94;66.87;98385.91;5048453;28;19924;-68
2023/04/30 05:28:05;;;;;;;;;;;;;;;11.04;66.60;98395.78;5053471;28;20071;-71
2023/04/30 05:30:53;;;;;;;;;;;;;;;11.06;66.35;98392.75;5056558;28;19936;-70
2023/04/30 05:33:41;;;;;;;;;;;;;;;11.14;66.57;98392.06;5054597;28;20014;-69
2023/04/30 05:36:30;;;;;;;;;;;;;;;11.23;65.94;98393.75;5055951;28;19920;-70
2023/04/30 05:39:19;;;;;;;;;;;;;;;11.28;65.81;98401.00;5055442;28;19935;-70
2023/04/30 05:42:08;;;;;;;;;;;;;;;11.43;65.73;98405.31;5042813;28;20358;-71
2023/04/30 05:44:57;;;;;;;;;;;;;;;11.57;64.81;98408.03;5060168;28;19940;-70
2023/04/30 05:47:45;;;;;;;;;;;;;;;11.54;64.57;98402.06;5056024;28;20362;-69
2023/04/30 05:50:33;;;;;;;;;;;;;;;11.60;64.39;98405.50;5040806;28;19966;-68
2023/04/30 05:53:22;;;;;;;;;;;;;;;11.65;63.93;98401.84;5044465;28;19925;-70
2023/04/30 05:56:11;;;;;;;;;;;;;;;11.57;64.62;98397.16;5034252;28;19967;-69
2023/04/30 05:59:00;;;;;;;;;;;;;;;11.74;63.54;98394.59;5038660;28;20160;-69
2023/04/30 06:01:48;;;;;;;;;;;;;;;11.67;63.70;98402.38;5042516;28;19925;-69
2023/04/30 06:04:37;;;;;;;;;;;;;;;11.72;63.05;98402.25;5043165;28;20467;-70
2023/04/30 06:07:25;;;;;;;;;;;;;;;11.79;62.98;98398.00;5046328;28;19970;-69
2023/04/30 06:10:13;;;;;;;;;;;;;;;11.82;62.89;98404.75;5051332;28;19933;-70
2023/04/30 06:13:01;;;;;;;;;;;;;;;11.80;62.72;98401.53;5026508;28;19933;-71
2023/04/30 06:15:50;;;;;;;;;;;;;;;11.75;62.33;98402.44;5034693;28;19925;-69
2023/04/30 06:18:38;;;;;;;;;;;;;;;11.86;61.82;98408.47;5041396;28;19939;-71
2023/04/30 06:21:26;;;;;;;;;;;;;;;11.91;61.28;98405.66;5039086;28;20034;-68
2023/04/30 06:24:15;;;;;;;;;;;;;;;11.98;61.19;98402.50;5039356;28;19928;-69
2023/04/30 06:27:03;;;;;;;;;;;;;;;12.05;61.11;98400.16;5043948;28;20008;-71
2023/04/30 06:29:51;;;;;;;;;;;;;;;12.03;60.79;98403.16;5037163;28;19925;-69
2023/04/30 06:32:41;;;;;;;;;;;;;;;12.17;60.36;98391.44;5045958;28;20684;-68
2023/04/30 06:35:29;;;;;;;;;;;;;;;12.40;59.79;98395.75;5025447;28;19922;-69
2023/04/30 06:38:18;;;;;;;;;;;;;;;12.60;59.09;98394.41;5039608;28;19925;-69
2023/04/30 06:41:06;;;;;;;;;;;;;;;12.82;58.39;98399.81;5035110;28;19933;-70
2023/04/30 06:43:54;;;;;;;;;;;;;;;12.84;55.85;98394.06;5034336;28;19973;-71
2023/04/30 06:46:42;;;;;;;;;;;;;;;12.87;56.45;98393.44;5039425;28;19998;-69
2023/04/30 06:49:32;;;;;;;;;;;;;;;12.91;56.26;98394.41;5052621;28;19924;-68
2023/04/30 06:52:20;;;;;;;;;;;;;;;13.05;55.45;98406.03;5043645;28;19968;-68
2023/04/30 06:55:08;;;;;;;;;;;;;;;13.15;56.12;98394.00;5052422;28;19944;-69
2023/04/30 06:57:57;;;;;;;;;;;;;;;13.26;56.05;98395.38;5055158;28;20007;-69
2023/04/30 07:00:47;;;;;;;;;;;;;;;13.31;55.48;98391.69;5059227;28;19920;-69
2023/04/30 07:03:35;;;;;;;;;;;;;;;13.44;54.71;98390.75;5056977;28;19931;-69
2023/04/30 07:06:25;;;;;;;;;;;;;;;13.51;55.10;98393.81;5055365;28;19939;-67
2023/04/30 07:09:14;;;;;;;;;;;;;;;13.57;54.28;98398.00;5040773;28;20023;-69
2023/04/30 07:12:03;;;;;;;;;;;;;;;13.67;54.59;98390.63;5056205;28;20009;-71
2023/04/30 07:14:52;;;;;;;;;;;;;;;13.82;54.25;98390.97;5056864;28;19964;-69
2023/04/30 07:17:40;;;;;;;;;;;;;;;14.11;53.15;98395.78;5041881;28;19933;-71
2023/04/30 07:20:28;;;;;;;;;;;;;;;14.11;52.97;98401.25;5056644;28;20289;-69
2023/04/30 07:23:18;;;;;;;;;;;;;;;14.05;52.50;98399.78;5055093;28;19921;-69
2023/04/30 07:26:06;;;;;;;;;;;;;;;14.00;53.68;98397.22;5056363;28;19958;-69
2023/04/30 07:28:54;;;;;;;;;;;;;;;13.99;52.34;98401.09;5053068;28;20016;-68
2023/04/30 07:31:42;;;;;;;;;;;;;;;14.03;52.00;98398.53;5075785;28;19943;-68
2023/04/30 07:34:30;;;;;;;;;;;;;;;14.05;52.60;98394.31;5072825;28;19931;-68
2023/04/30 07:37:18;;;;;;;;;;;;;;;14.31;51.92;98393.50;5074675;28;20030;-68
2023/04/30 07:40:11;;;;;;;;;;;;;;;14.42;51.19;98400.25;5076802;28;20480;-68
2023/04/30 07:43:02;;;;;;;;;;;;;;;14.63;51.70;98400.38;5062563;28;19938;-68
2023/04/30 07:45:53;;;;;;;;;;;;;;;14.62;50.75;98396.84;5077542;28;19934;-68
2023/04/30 07:48:42;;;;;;;;;;;;;;;14.62;50.41;98390.59;5078590;28;19923;-70
2023/04/30 07:51:31;;;;;;;;;;;;;;;14.73;50.07;98393.78;5068628;28;20280;-70
2023/04/30 07:54:20;;;;;;;;;;;;;;;14.70;49.91;98391.69;5062475;28;19920;-67
2023/04/30 07:57:09;;;;;;;;;;;;;;;14.74;49.27;98398.09;5075505;28;19924;-72
2023/04/30 07:59:58;;;;;;;;;;;;;;;14.84;48.87;98392.28;5075777;28;19920;-70
2023/04/30 08:02:49;;;;;;;;;;;;;;;14.99;47.00;98394.47;5075417;28;19924;-68
2023/04/30 08:05:38;;;;;;;;;;;;;;;15.12;46.84;98389.91;5077872;28;19920;-68
2023/04/30 08:08:26;;;;;;;;;;;;;;;15.28;46.31;98392.88;5077698;28;20013;-68
2023/04/30 08:11:14;;;;;;;;;;;;;;;15.46;45.91;98391.66;5076312;28;20211;-69
2023/04/30 08:14:05;;;;;;;;;;;;;;;15.44;44.65;98388.44;5064127;28;19928;-69
2023/04/30 08:16:54;;;;;;;;;;;;;;;15.06;45.08;98389.28;5061700;28;19924;-68
2023/04/30 08:19:42;;;;;;;;;;;;;;;15.07;45.92;98393.63;5079965;28;19968;-67
2023/04/30 08:22:32;;;;;;;;;;;;;;;15.39;44.06;98385.91;5074589;28;19932;-64
2023/04/30 08:25:20;;;;;;;;;;;;;;;15.66;42.97;98390.94;5060892;28;20078;-65
2023/04/30 08:28:09;;;;;;;;;;;;;;;16.01;43.24;98379.69;5080006;28;19920;-68
2023/04/30 08:30:58;;;;;;;;;;;;;;;16.31;43.09;98382.34;5064601;28;19920;-67
2023/04/30 08:33:46;;;;;;;;;;;;;;;16.52;40.79;98377.63;5078436;28;20360;-66
2023/04/30 08:36:34;;;;;;;;;;;;;;;16.73;39.02;98377.56;5083133;28;19920;-65
2023/04/30 08:39:22;;;;;;;;;;;;;;;16.77;38.69;98368.28;5083318;28;20004;-67
2023/04/30 08:42:12;;;;;;;;;;;;;;;17.03;37.51;98383.66;5066835;28;20072;-68
2023/04/30 08:45:00;;;;;;;;;;;;;;;17.09;36.55;98373.25;5059026;28;19931;-70
2023/04/30 08:47:52;;;;;;;;;;;;;;;17.10;36.21;98375.66;5088270;28;19920;-70
2023/04/30 08:50:41;;;;;;;;;;;;;;;17.38;35.44;98385.97;5080901;28;19951;-67
2023/04/30 08:53:29;;;;;;;;;;;;;;;17.55;36.92;98374.72;5064815;28;20448;-67
2023/04/30 08:56:17;;;;;;;;;;;;;;;17.35;36.34;98392.13;5079678;28;20435;-65
2023/04/30 08:59:05;;;;;;;;;;;;;;;17.25;35.96;98383.19;5076344;28;20267;-70
2023/04/30 09:01:53;;;;;;;;;;;;;;;16.85;37.13;98385.81;5077210;28;19925;-70
2023/04/30 09:04:43;;;;;;;;;;;;;;;17.08;37.33;98383.44;5076297;28;22181;-68
2023/04/30 09:07:31;;;;;;;;;;;;;;;16.90;38.31;98393.03;5076597;28;19933;-69
2023/04/30 09:10:20;;;;;;;;;;;;;;;16.76;37.90;98383.16;5080895;28;19931;-67
2023/04/30 09:13:08;;;;;;;;;;;;;;;16.52;38.75;98383.09;5080095;28;19920;-67
2023/04/30 09:15:56;;;;;;;;;;;;;;;16.60;38.64;98384.94;5064852;28;19920;-66
2023/04/30 09:19:45;;;;;;;;;;;;;;;16.41;37.36;98385.47;5099288;27;19919;-67
2023/04/30 09:22:34;;;;;;;;;;;;;;;16.58;38.26;98384.47;5071181;28;19928;-63
2023/04/30 09:25:22;;;;;;;;;;;;;;;16.75;36.55;98383.50;5087939;28;19983;-62
2023/04/30 09:28:11;;;;;;;;;;;;;;;16.97;36.24;98379.53;5093804;28;19924;-63
2023/04/30 09:30:59;;;;;;;;;;;;;;;17.01;36.35;98380.47;5127443;27;19928;-65
2023/04/30 09:33:47;;;;;;;;;;;;;;;17.28;35.13;98384.47;5113554;27;20498;-65
2023/04/30 09:36:36;;;;;;;;;;;;;;;17.26;36.25;98384.81;5110537;27;19975;-64
2023/04/30 09:39:25;;;;;;;;;;;;;;;17.03;35.89;98383.66;5116846;27;20376;-66
2023/04/30 09:42:13;;;;;;;;;;;;;;;17.14;37.14;98376.56;5111993;27;19924;-67
2023/04/30 09:45:01;;;;;;;;;;;;;;;17.25;35.43;98379.66;5112848;27;19920;-66
2023/04/30 09:47:49;;;;;;;;;;;;;;;17.16;34.78;98376.25;5125269;27;19920;-70
2023/04/30 09:50:39;;;;;;;;;;;;;;;17.32;35.22;98384.59;5112597;27;20018;-67
2023/04/30 09:53:30;;;;;;;;;;;;;;;17.49;34.89;98365.91;5131931;27;20475;-70
2023/04/30 09:56:20;;;;;;;;;;;;;;;17.54;35.16;98373.13;5109120;27;19988;-71
2023/04/30 09:59:09;;;;;;;;;;;;;;;17.71;34.11;98370.09;5114624;27;19968;-68
2023/04/30 10:01:57;;;;;;;;;;;;;;;17.65;35.02;98374.25;5104722;27;19985;-69
2023/04/30 10:04:46;;;;;;;;;;;;;;;17.74;34.54;98369.47;5117386;27;20040;-68
2023/04/30 10:07:35;;;;;;;;;;;;;;;17.73;34.91;98369.78;5108567;27;20355;-69
2023/04/30 10:10:24;;;;;;;;;;;;;;;17.89;33.37;98367.09;5113330;27;20081;-73
2023/04/30 10:13:14;;;;;;;;;;;;;;;17.97;32.99;98361.47;5092391;28;20589;-72
2023/04/30 10:16:04;;;;;;;;;;;;;;;18.10;32.99;98362.22;5093914;28;19924;-68
2023/04/30 10:18:52;;;;;;;;;;;;;;;18.15;33.91;98352.94;5112872;27;20645;-69
2023/04/30 10:21:42;;;;;;;;;;;;;;;18.06;33.94;98342.91;5114138;27;20099;-67
2023/04/30 10:24:30;;;;;;;;;;;;;;;17.97;34.61;98355.19;5108935;27;19966;-66
2023/04/30 10:27:20;;;;;;;;;;;;;;;17.90;34.21;98342.03;5112771;27;19934;-69
2023/04/30 10:30:10;;;;;;;;;;;;;;;17.97;35.21;98330.44;5107975;27;19920;-66
2023/04/30 10:33:02;;;;;;;;;;;;;;;17.73;35.71;98334.84;5095145;27;19930;-67
2023/04/30 10:35:51;;;;;;;;;;;;;;;17.93;35.13;98329.53;5068093;28;20046;-67
2023/04/30 10:38:39;;;;;;;;;;;;;;;17.97;34.01;98335.94;5078805;28;19931;-66
2023/04/30 10:41:28;;;;;;;;;;;;;;;17.97;34.51;98330.44;5075621;28;20052;-68
2023/04/30 10:44:20;;;;;;;;;;;;;;;17.87;34.89;98336.44;5067836;28;19941;-66
2023/04/30 10:47:09;;;;;;;;;;;;;;;17.91;35.38;98332.63;5084466;28;19946;-67
2023/04/30 10:50:02;;;;;;;;;;;;;;;17.99;35.37;98320.69;5092191;28;19977;-72
2023/04/30 10:52:52;;;;;;;;;;;;;;;18.16;34.43;98322.31;5089591;28;20010;-68
2023/04/30 10:55:46;;;;;;;;;;;;;;;18.35;34.79;98329.13;5105800;27;19962;-66
2023/04/30 10:58:34;;;;;;;;;;;;;;;18.47;34.59;98321.59;5116338;27;19924;-68
2023/04/30 11:01:25;;;;;;;;;;;;;;;18.47;34.11;98316.09;5091506;28;19956;-65
2023/04/30 11:04:14;;;;;;;;;;;;;;;18.29;33.51;98321.13;5095635;27;19959;-68
2023/04/30 11:07:03;;;;;;;;;;;;;;;18.14;32.98;98310.88;5094600;27;19945;-67
2023/04/30 11:09:51;;;;;;;;;;;;;;;18.10;34.00;98312.72;5080352;28;19932;-68
2023/04/30 11:12:40;;;;;;;;;;;;;;;17.96;33.14;98304.09;5077853;28;19927;-66
2023/04/30 11:15:33;;;;;;;;;;;;;;;18.12;32.44;98315.94;5092915;27;19920;-66
2023/04/30 11:18:23;;;;;;;;;;;;;;;18.03;32.88;98302.34;5098901;27;19920;-67
2023/04/30 11:21:11;;;;;;;;;;;;;;;18.19;32.34;98301.59;5097558;27;19930;-66
2023/04/30 11:24:02;;;;;;;;;;;;;;;18.26;32.96;98291.56;5096267;27;19964;-66
2023/04/30 11:27:03;;;;;;;;;;;;;;;18.60;32.99;98294.81;5094762;28;20401;-70
2023/04/30 11:29:52;;;;;;;;;;;;;;;18.61;32.16;98287.34;5097163;27;20308;-68
2023/04/30 11:32:41;;;;;;;;;;;;;;;18.65;36.57;98283.53;5093193;27;19920;-67
2023/04/30 11:35:32;;;;;;;;;;;;;;;18.82;32.73;98280.44;5104686;27;20418;-68
2023/04/30 11:38:21;;;;;;;;;;;;;;;18.89;32.02;98287.25;5092686;27;20636;-67
2023/04/30 11:41:11;;;;;;;;;;;;;;;18.80;31.08;98277.25;5095160;27;20015;-68
2023/04/30 11:43:59;;;;;;;;;;;;;;;18.94;31.93;98270.47;5085136;27;19930;-66
2023/04/30 11:46:47;;;;;;;;;;;;;;;19.18;30.79;98274.97;5098483;28;20035;-68
2023/04/30 11:49:37;;;;;;;;;;;;;;;19.21;30.62;98277.78;5094404;28;20293;-65
2023/04/30 11:52:26;;;;;;;;;;;;;;;19.24;30.05;98268.81;5109124;27;19934;-71
2023/04/30 11:55:15;;;;;;;;;;;;;;;19.14;29.46;98266.63;5103496;27;20022;-68
2023/04/30 11:58:04;;;;;;;;;;;;;;;19.08;29.49;98270.81;5099158;27;20582;-68
2023/04/30 12:00:52;;;;;;;;;;;;;;;19.09;30.60;98264.94;5089612;27;20306;-70
2023/04/30 12:03:41;;;;;;;;;;;;;;;19.05;31.06;98266.81;5099447;28;20083;-67
2023/04/30 12:06:30;;;;;;;;;;;;;;;18.95;31.78;98263.81;5096388;27;19930;-67
2023/04/30 12:09:20;;;;;;;;;;;;;;;18.96;31.93;98257.16;5084687;28;19973;-67
2023/04/30 12:12:08;;;;;;;;;;;;;;;19.05;32.04;98260.50;5099458;28;20126;-68
2023/04/30 12:14:58;;;;;;;;;;;;;;;19.05;31.58;98263.25;5095189;27;20044;-68
2023/04/30 12:17:46;;;;;;;;;;;;;;;19.10;30.74;98266.53;5097927;27;19973;-69
2023/04/30 12:20:35;;;;;;;;;;;;;;;18.77;30.53;98269.69;5097231;27;20038;-70
2023/04/30 12:23:23;;;;;;;;;;;;;;;18.80;30.95;98260.75;5093619;27;20377;-69
2023/04/30 12:26:12;;;;;;;;;;;;;;;18.96;30.42;98259.91;5090997;27;19950;-69
2023/04/30 12:29:02;;;;;;;;;;;;;;;18.98;30.05;98261.16;5097772;28;19942;-67
2023/04/30 12:31:51;;;;;;;;;;;;;;;19.04;29.86;98258.91;5101035;28;19960;-69
2023/04/30 12:34:39;;;;;;;;;;;;;;;18.93;29.95;98255.13;5092876;27;19934;-71
2023/04/30 12:37:28;;;;;;;;;;;;;;;18.74;29.58;98264.91;5096892;27;19950;-68
2023/04/30 12:40:17;;;;;;;;;;;;;;;18.52;31.06;98258.03;5094870;28;20478;-69
2023/04/30 12:43:08;;;;;;;;;;;;;;;18.57;31.53;98252.28;5098041;27;19940;-68
2023/04/30 12:45:59;;;;;;;;;;;;;;;18.68;31.04;98247.06;5090290;28;19930;-67
2023/04/30 12:48:48;;;;;;;;;;;;;;;18.54;31.52;98255.75;5096624;27;19945;-68
2023/04/30 12:51:39;;;;;;;;;;;;;;;18.54;32.32;98247.50;5105322;27;20504;-71
2023/04/30 12:54:27;;;;;;;;;;;;;;;18.44;31.45;98247.22;5110432;27;19942;-68
2023/04/30 12:57:16;;;;;;;;;;;;;;;18.39;31.98;98242.78;5100779;27;20057;-68
2023/04/30 13:00:07;;;;;;;;;;;;;;;18.74;31.58;98236.56;5094881;28;19980;-67
2023/04/30 13:02:55;;;;;;;;;;;;;;;18.72;32.44;98236.16;5102303;27;20313;-68
2023/04/30 13:05:46;;;;;;;;;;;;;;;18.72;32.72;98228.69;5103163;27;20281;-68
2023/04/30 13:08:34;;;;;;;;;;;;;;;18.81;32.13;98226.56;5097019;28;19967;-69
2023/04/30 13:11:33;;;;;;;;;;;;;;;18.91;30.48;98229.88;5100170;28;19962;-69
2023/04/30 13:14:21;;;;;;;;;;;;;;;18.85;31.34;98221.09;5102723;28;19997;-67
2023/04/30 13:17:12;;;;;;;;;;;;;;;18.79;30.71;98217.84;5096024;28;19938;-69
2023/04/30 13:20:01;;;;;;;;;;;;;;;18.74;30.78;98215.34;5051255;28;19961;-67
2023/04/30 13:22:51;;;;;;;;;;;;;;;18.74;31.09;98209.84;5053266;28;20194;-69
2023/04/30 13:25:40;;;;;;;;;;;;;;;18.81;30.16;98206.47;5053263;28;19924;-70
2023/04/30 13:28:29;;;;;;;;;;;;;;;18.78;30.95;98205.22;5057317;28;20015;-69
2023/04/30 13:31:17;;;;;;;;;;;;;;;18.56;31.75;98209.41;5055018;28;19996;-67
2023/04/30 13:34:07;;;;;;;;;;;;;;;18.52;31.66;98204.97;5054376;28;20486;-67
2023/04/30 13:36:55;;;;;;;;;;;;;;;18.48;32.40;98204.91;5070797;28;19951;-68
2023/04/30 13:39:43;;;;;;;;;;;;;;;18.52;30.99;98205.75;5049666;28;19967;-67
2023/04/30 13:42:32;;;;;;;;;;;;;;;18.66;31.55;98196.28;5054032;28;20393;-67
2023/04/30 13:45:20;;;;;;;;;;;;;;;18.61;31.50;98208.34;5054507;28;19931;-67
2023/04/30 13:48:08;;;;;;;;;;;;;;;18.43;31.51;98201.59;5067008;28;19924;-67
2023/04/30 13:50:58;;;;;;;;;;;;;;;18.45;32.32;98199.31;5058153;28;19984;-68
2023/04/30 13:53:46;;;;;;;;;;;;;;;18.60;31.09;98193.00;5059025;28;19953;-69
2023/04/30 13:56:35;;;;;;;;;;;;;;;18.68;31.24;98189.25;5071845;28;20452;-68
2023/04/30 13:59:23;;;;;;;;;;;;;;;18.78;32.50;98183.22;5056562;28;19973;-68
2023/04/30 14:02:11;;;;;;;;;;;;;;;18.82;31.42;98192.34;5059461;28;19921;-65
2023/04/30 14:05:02;;;;;;;;;;;;;;;18.78;32.40;98191.47;5061758;28;19999;-67
2023/04/30 14:07:54;;;;;;;;;;;;;;;18.89;31.48;98190.91;5044030;28;19928;-69
2023/04/30 14:10:42;;;;;;;;;;;;;;;18.92;31.88;98195.72;5059721;28;20373;-67
2023/04/30 14:13:31;;;;;;;;;;;;;;;18.90;31.60;98173.25;5056227;28;21008;-66
2023/04/30 14:16:19;;;;;;;;;;;;;;;18.84;32.18;98176.28;5054103;28;19924;-66
2023/04/30 14:19:08;;;;;;;;;;;;;;;18.75;31.08;98167.44;5054225;28;20008;-71
2023/04/30 14:21:56;;;;;;;;;;;;;;;18.66;30.24;98172.28;5053504;28;19929;-71
2023/04/30 14:24:46;;;;;;;;;;;;;;;18.77;29.64;98164.31;5057776;28;19935;-67
2023/04/30 14:27:34;;;;;;;;;;;;;;;18.73;30.29;98155.97;5057992;28;20505;-67
2023/04/30 14:30:22;;;;;;;;;;;;;;;18.87;30.80;98154.69;5073090;28;20679;-67
2023/04/30 14:33:11;;;;;;;;;;;;;;;18.83;30.84;98162.88;5053774;28;20069;-66
2023/04/30 14:36:00;;;;;;;;;;;;;;;18.83;30.38;98151.88;5058641;28;20336;-67
2023/04/30 14:38:48;;;;;;;;;;;;;;;18.50;30.87;98146.75;5048988;28;19951;-67
2023/04/30 14:41:38;;;;;;;;;;;;;;;18.51;31.05;98156.59;5057473;28;19939;-67